createdAt,value
2022-11-07T04:02:02.040Z,9.70
2022-11-07T04:04:29.299Z,9.70
2022-11-07T04:06:56.445Z,9.70
2022-11-07T04:09:23.696Z,9.70
2022-11-07T04:12:29.451Z,9.70
2022-11-07T04:15:15.059Z,9.70
2022-11-07T04:17:42.189Z,9.70
2022-11-07T04:20:09.825Z,9.60
2022-11-07T04:22:37.039Z,9.60
2022-11-07T04:25:04.845Z,9.60
2022-11-07T04:27:44.239Z,9.60
2022-11-07T04:30:20.398Z,9.50
2022-11-07T04:32:49.085Z,9.50
2022-11-07T04:35:16.893Z,9.40
2022-11-07T04:37:44.324Z,9.40
2022-11-07T04:40:12.090Z,9.40
2022-11-07T04:42:40.032Z,9.30
2022-11-07T04:45:08.215Z,9.30
2022-11-07T04:47:40.267Z,9.20
2022-11-07T04:50:10.609Z,9.20
2022-11-07T04:52:37.969Z,9.20
2022-11-07T04:55:07.243Z,9.10
2022-11-07T04:57:34.485Z,9.20
2022-11-07T05:00:02.516Z,9.10
2022-11-07T05:02:29.731Z,9.10
2022-11-07T05:04:56.839Z,9.10
2022-11-07T05:07:23.964Z,9.10
2022-11-07T05:09:51.175Z,9.10
2022-11-07T05:12:18.378Z,9.00
2022-11-07T05:14:45.728Z,8.90
2022-11-07T05:17:16.582Z,9.00
2022-11-07T05:19:43.805Z,8.90
2022-11-07T05:22:30.285Z,8.90
2022-11-07T05:24:57.540Z,8.90
2022-11-07T05:27:25.280Z,8.90
2022-11-07T05:29:52.811Z,8.80
2022-11-07T05:32:20.013Z,8.80
2022-11-07T05:34:47.178Z,8.70
2022-11-07T05:37:14.343Z,8.70
2022-11-07T05:39:41.473Z,8.70
2022-11-07T05:42:08.657Z,8.70
2022-11-07T05:44:35.903Z,8.70
2022-11-07T05:47:03.049Z,8.70
2022-11-07T05:49:30.221Z,8.70
2022-11-07T05:51:57.782Z,8.70
2022-11-07T05:54:27.887Z,8.70
2022-11-07T05:56:58.597Z,8.60
2022-11-07T05:59:25.909Z,8.60
2022-11-07T06:01:53.870Z,8.50
2022-11-07T06:04:21.194Z,8.60
2022-11-07T06:06:48.387Z,8.50
2022-11-07T06:09:15.611Z,8.50
2022-11-07T06:11:42.823Z,8.40
2022-11-07T06:14:10.113Z,8.40
2022-11-07T06:16:37.334Z,8.40
2022-11-07T06:19:04.766Z,8.40
2022-11-07T06:21:32.248Z,8.40
2022-11-07T06:23:59.491Z,8.40
2022-11-07T06:26:26.953Z,8.40
2022-11-07T06:28:54.111Z,8.40
2022-11-07T06:31:21.977Z,8.40
2022-11-07T06:33:52.323Z,8.40
2022-11-07T06:36:19.655Z,8.50
2022-11-07T06:38:52.769Z,8.50
2022-11-07T06:41:19.923Z,8.60
2022-11-07T06:43:47.247Z,8.60
2022-11-07T06:46:14.530Z,8.60
2022-11-07T06:48:41.740Z,8.60
2022-11-07T06:51:10.093Z,8.70
2022-11-07T06:53:38.515Z,8.70
2022-11-07T06:56:07.788Z,8.70
2022-11-07T06:58:35.081Z,8.60
2022-11-07T07:01:08.516Z,8.60
2022-11-07T07:03:35.937Z,8.70
2022-11-07T07:06:05.780Z,8.80
2022-11-07T07:08:33.911Z,8.70
2022-11-07T07:11:05.669Z,8.90
2022-11-07T07:13:33.187Z,8.90
2022-11-07T07:16:00.430Z,9.00
2022-11-07T07:18:28.173Z,9.00
2022-11-07T07:21:07.188Z,9.20
2022-11-07T07:23:34.972Z,9.20
2022-11-07T07:26:03.099Z,9.20
2022-11-07T07:28:30.366Z,9.30
2022-11-07T07:31:15.606Z,9.40
2022-11-07T07:33:43.567Z,9.50
2022-11-07T07:36:15.284Z,9.50
2022-11-07T07:38:45.203Z,9.60
2022-11-07T07:41:12.432Z,9.80
2022-11-07T07:43:39.634Z,9.90
2022-11-07T07:46:08.553Z,10.00
2022-11-07T07:48:35.706Z,10.00
2022-11-07T07:51:02.964Z,10.20
2022-11-07T07:53:30.285Z,10.20
2022-11-07T07:56:02.682Z,10.30
2022-11-07T07:58:29.922Z,10.40
2022-11-07T08:01:00.028Z,10.50
2022-11-07T08:03:32.089Z,10.50
2022-11-07T08:06:07.467Z,10.60
2022-11-07T08:08:38.101Z,10.60
2022-11-07T08:11:08.260Z,10.80
2022-11-07T08:13:36.056Z,10.80
2022-11-07T08:16:07.747Z,10.90
2022-11-07T08:18:36.667Z,11.00
2022-11-07T08:21:03.951Z,11.20
2022-11-07T08:23:31.507Z,11.20
2022-11-07T08:26:00.127Z,11.50
2022-11-07T08:28:29.570Z,11.70
2022-11-07T08:31:01.358Z,12.00
2022-11-07T08:33:28.972Z,12.10
2022-11-07T08:35:58.900Z,12.30
2022-11-07T08:38:26.730Z,12.40
2022-11-07T08:40:54.223Z,12.60
2022-11-07T08:43:21.791Z,12.60
2022-11-07T08:45:50.042Z,12.70
2022-11-07T08:48:17.809Z,12.80
2022-11-07T08:50:45.366Z,12.90
2022-11-07T08:53:12.582Z,13.00
2022-11-07T08:55:39.697Z,12.90
2022-11-07T08:58:08.094Z,13.00
2022-11-07T09:00:36.340Z,13.10
2022-11-07T09:03:31.291Z,13.10
2022-11-07T09:05:53.161Z,13.10
2022-11-07T09:08:20.436Z,13.20
2022-11-07T09:10:47.672Z,13.10
2022-11-07T09:13:15.367Z,13.10
2022-11-07T09:15:47.697Z,13.20
2022-11-07T09:18:16.669Z,13.30
2022-11-07T09:20:43.835Z,13.50
2022-11-07T09:23:11.033Z,13.50
2022-11-07T09:25:38.154Z,13.80
2022-11-07T09:28:05.765Z,13.80
2022-11-07T09:30:33.168Z,14.20
2022-11-07T09:33:00.568Z,14.20
2022-11-07T09:35:28.090Z,14.10
2022-11-07T09:37:55.265Z,14.10
2022-11-07T09:40:27.481Z,14.20
2022-11-07T09:43:18.586Z,14.10
2022-11-07T09:46:12.003Z,14.20
2022-11-07T09:48:45.003Z,14.40
2022-11-07T09:51:35.708Z,14.60
2022-11-07T09:54:13.826Z,14.50
2022-11-07T09:56:43.671Z,14.60
2022-11-07T09:59:27.674Z,14.50
2022-11-07T10:01:54.905Z,14.40
2022-11-07T10:04:26.263Z,14.40
2022-11-07T10:06:56.584Z,14.30
2022-11-07T10:09:55.815Z,14.20
2022-11-07T10:12:44.525Z,14.40
2022-11-07T10:15:27.703Z,14.30
2022-11-07T10:18:19.255Z,14.60
2022-11-07T10:21:31.185Z,14.80
2022-11-07T10:24:03.112Z,15.10
2022-11-07T10:26:31.656Z,15.30
2022-11-07T10:29:20.063Z,15.30
2022-11-07T10:32:09.535Z,15.30
2022-11-07T10:34:42.398Z,15.50
2022-11-07T10:37:09.810Z,15.60
2022-11-07T10:39:36.960Z,15.70
2022-11-07T10:42:15.290Z,15.70
2022-11-07T10:44:43.768Z,15.70
2022-11-07T10:47:18.051Z,15.60
2022-11-07T10:49:59.942Z,15.60
2022-11-07T10:52:28.466Z,15.70
2022-11-07T10:55:13.796Z,15.60
2022-11-07T10:57:41.215Z,15.80
2022-11-07T11:00:28.912Z,15.80
2022-11-07T11:02:57.369Z,16.10
2022-11-07T11:05:46.789Z,16.10
2022-11-07T11:08:22.307Z,16.10
2022-11-07T11:10:50.485Z,16.20
2022-11-07T11:13:34.244Z,16.30
2022-11-07T11:16:26.914Z,16.30
2022-11-07T11:18:59.615Z,16.40
2022-11-07T11:21:37.796Z,16.60
2022-11-07T11:24:13.687Z,16.70
2022-11-07T11:26:44.206Z,16.50
2022-11-07T11:29:20.719Z,16.50
2022-11-07T11:31:51.643Z,16.60
2022-11-07T11:34:18.747Z,16.30
2022-11-07T11:36:53.419Z,16.20
2022-11-07T11:39:35.495Z,16.10
2022-11-07T11:42:05.004Z,15.70
2022-11-07T11:44:44.143Z,15.70
2022-11-07T11:47:11.305Z,15.70
2022-11-07T11:49:52.357Z,15.80
2022-11-07T11:52:25.828Z,15.70
2022-11-07T11:54:56.198Z,15.60
2022-11-07T11:57:36.224Z,15.50
2022-11-07T12:00:22.645Z,15.50
2022-11-07T12:03:09.601Z,15.70
2022-11-07T12:06:06.143Z,15.90
2022-11-07T12:09:17.127Z,15.90
2022-11-07T12:12:01.432Z,15.90
2022-11-07T12:14:57.580Z,16.00
2022-11-07T12:17:43.609Z,16.00
2022-11-07T12:20:29.110Z,15.90
2022-11-07T12:23:18.007Z,15.90
2022-11-07T12:25:58.591Z,15.90
2022-11-07T12:28:37.189Z,15.80
2022-11-07T12:31:13.848Z,15.80
2022-11-07T12:33:56.252Z,15.80
2022-11-07T12:36:23.462Z,15.80
2022-11-07T12:39:02.735Z,15.60
2022-11-07T12:41:46.570Z,15.80
2022-11-07T12:44:16.551Z,15.90
2022-11-07T12:46:49.598Z,15.80
2022-11-07T12:49:19.460Z,15.80
2022-11-07T12:52:01.979Z,15.50
2022-11-07T12:54:38.041Z,15.50
2022-11-07T12:57:15.801Z,15.50
2022-11-07T12:59:49.225Z,15.50
2022-11-07T13:02:37.882Z,15.40
2022-11-07T13:05:23.748Z,15.50
2022-11-07T13:07:57.227Z,15.60
2022-11-07T13:10:40.778Z,15.50
2022-11-07T13:13:54.063Z,15.50
2022-11-07T13:16:26.960Z,15.40
2022-11-07T13:18:55.981Z,15.70
2022-11-07T13:21:23.277Z,15.80
2022-11-07T13:23:50.482Z,15.90
2022-11-07T13:26:46.565Z,15.90
2022-11-07T13:29:34.936Z,15.90
2022-11-07T13:32:16.374Z,15.70
2022-11-07T13:34:59.019Z,15.60
2022-11-07T13:37:48.102Z,15.50
2022-11-07T13:40:29.163Z,15.30
2022-11-07T13:43:01.130Z,15.20
2022-11-07T13:45:40.757Z,15.20
2022-11-07T13:48:16.644Z,15.00
2022-11-07T13:51:18.055Z,15.00
2022-11-07T13:53:57.161Z,14.90
2022-11-07T13:56:27.343Z,14.90
2022-11-07T13:58:55.839Z,14.70
2022-11-07T14:01:23.108Z,14.60
2022-11-07T14:03:50.435Z,14.60
2022-11-07T14:06:17.966Z,14.70
2022-11-07T14:08:47.333Z,14.70
2022-11-07T14:11:23.204Z,14.60
2022-11-07T14:13:53.154Z,14.60
2022-11-07T14:16:26.301Z,14.60
2022-11-07T14:18:59.015Z,14.60
2022-11-07T14:21:29.910Z,14.60
2022-11-07T14:23:58.179Z,14.50
2022-11-07T14:26:28.055Z,14.50
2022-11-07T14:28:56.851Z,14.50
2022-11-07T14:31:32.380Z,14.50
2022-11-07T14:34:05.211Z,14.60
2022-11-07T14:36:32.319Z,14.60
2022-11-07T14:39:11.266Z,14.60
2022-11-07T14:41:43.943Z,14.60
2022-11-07T14:44:28.458Z,14.70
2022-11-07T14:46:59.643Z,14.70
2022-11-07T14:49:33.524Z,14.60
2022-11-07T14:52:00.952Z,14.60
2022-11-07T14:54:36.714Z,14.50
2022-11-07T14:57:04.498Z,14.40
2022-11-07T14:59:35.337Z,14.20
2022-11-07T15:02:30.502Z,14.20
2022-11-07T15:05:07.990Z,14.20
2022-11-07T15:07:47.446Z,14.10
2022-11-07T15:10:25.298Z,14.00
2022-11-07T15:12:56.101Z,13.80
2022-11-07T15:15:24.705Z,13.80
2022-11-07T15:17:55.086Z,13.60
2022-11-07T15:20:32.748Z,13.60
2022-11-07T15:23:04.082Z,13.40
2022-11-07T15:25:44.532Z,13.40
2022-11-07T15:28:44.070Z,13.20
2022-11-07T15:31:26.002Z,13.10
2022-11-07T15:33:55.132Z,13.00
2022-11-07T15:36:23.015Z,12.90
2022-11-07T15:38:51.743Z,12.80
2022-11-07T15:41:19.613Z,12.80
2022-11-07T15:43:46.761Z,12.60
2022-11-07T15:46:19.816Z,12.60
2022-11-07T15:48:47.331Z,12.50
2022-11-07T15:51:14.658Z,12.50
2022-11-07T15:53:41.889Z,12.40
2022-11-07T15:56:14.797Z,12.40
2022-11-07T15:58:42.279Z,12.30
2022-11-07T16:01:10.054Z,12.20
2022-11-07T16:03:37.412Z,12.10
2022-11-07T16:06:21.196Z,12.00
2022-11-07T16:08:48.303Z,12.00
2022-11-07T16:11:15.502Z,11.90
2022-11-07T16:13:42.680Z,11.90
2022-11-07T16:16:18.220Z,11.90
2022-11-07T16:18:46.722Z,11.80
2022-11-07T16:21:13.899Z,11.80
2022-11-07T16:23:42.397Z,11.80
2022-11-07T16:26:12.953Z,11.70
2022-11-07T16:28:40.946Z,11.70
2022-11-07T16:31:08.107Z,11.60
2022-11-07T16:33:35.215Z,11.60
2022-11-07T16:36:14.786Z,11.50
2022-11-07T16:38:41.889Z,11.40
2022-11-07T16:41:11.613Z,11.40
2022-11-07T16:43:39.053Z,11.40
2022-11-07T16:46:13.516Z,11.30
2022-11-07T16:48:41.794Z,11.30
2022-11-07T16:51:15.070Z,11.20
2022-11-07T16:53:43.552Z,11.20
2022-11-07T16:56:23.904Z,11.20
2022-11-07T16:58:52.897Z,11.10
2022-11-07T17:01:21.412Z,11.10
2022-11-07T17:03:48.830Z,11.00
2022-11-07T17:06:46.198Z,11.00
2022-11-07T17:09:24.709Z,11.00
2022-11-07T17:11:51.826Z,11.00
2022-11-07T17:14:19.004Z,10.90
2022-11-07T17:16:47.790Z,10.90
2022-11-07T17:19:15.503Z,10.90
2022-11-07T17:21:46.080Z,10.80
2022-11-07T17:24:13.747Z,10.80
2022-11-07T17:26:41.081Z,10.20
2022-11-07T17:29:12.313Z,10.20
2022-11-07T17:31:40.235Z,10.00
2022-11-07T17:34:07.488Z,9.90
2022-11-07T17:36:46.413Z,10.00
2022-11-07T17:39:19.426Z,10.00
2022-11-07T17:41:48.524Z,10.00
2022-11-07T17:44:17.043Z,10.10
2022-11-07T17:46:48.982Z,10.20
2022-11-07T17:49:18.540Z,10.20
2022-11-07T17:51:45.766Z,10.20
2022-11-07T17:54:14.928Z,10.20
2022-11-07T17:56:42.468Z,10.10
2022-11-07T17:59:14.780Z,10.10
2022-11-07T18:01:42.922Z,10.10
2022-11-07T18:04:12.330Z,10.10
2022-11-07T18:06:41.846Z,9.90
2022-11-07T18:09:13.820Z,9.90
2022-11-07T18:11:41.418Z,9.90
2022-11-07T18:14:12.000Z,9.90
2022-11-07T18:16:39.402Z,9.70
2022-11-07T18:19:06.746Z,9.70
2022-11-07T18:21:34.014Z,9.70
2022-11-07T18:24:02.045Z,9.60
2022-11-07T18:26:30.998Z,9.50
2022-11-07T18:29:03.602Z,9.50
2022-11-07T18:31:31.222Z,9.60
2022-11-07T18:34:00.655Z,8.90
2022-11-07T18:36:30.638Z,8.50
2022-11-07T18:39:28.198Z,8.50
2022-11-07T18:41:55.586Z,8.50
2022-11-07T18:44:22.739Z,8.50
2022-11-07T18:46:50.341Z,8.60
2022-11-07T18:49:19.494Z,8.60
2022-11-07T18:51:46.801Z,8.60
2022-11-07T18:54:14.379Z,8.60
2022-11-07T18:56:42.996Z,8.60
2022-11-07T18:59:10.674Z,8.60
2022-11-07T19:01:38.351Z,8.60
2022-11-07T19:04:06.712Z,8.70
2022-11-07T19:06:34.225Z,8.60
2022-11-07T19:09:01.465Z,8.60
2022-11-07T19:11:30.690Z,8.60
2022-11-07T19:14:01.148Z,8.60
2022-11-07T19:16:28.667Z,8.60
2022-11-07T19:18:55.822Z,8.50
2022-11-07T19:21:23.523Z,8.50
2022-11-07T19:23:51.318Z,8.50
2022-11-07T19:26:21.935Z,8.50
2022-11-07T19:28:49.222Z,8.40
2022-11-07T19:31:17.205Z,8.30
2022-11-07T19:33:44.728Z,8.40
2022-11-07T19:36:18.068Z,8.30
2022-11-07T19:38:45.942Z,8.30
2022-11-07T19:41:15.011Z,8.20
2022-11-07T19:43:45.314Z,8.30
2022-11-07T19:46:15.976Z,8.10
2022-11-07T19:48:44.050Z,7.80
2022-11-07T19:51:20.880Z,7.80
2022-11-07T19:53:55.568Z,7.80
2022-11-07T19:56:24.574Z,7.70
2022-11-07T19:58:51.852Z,7.50
2022-11-07T20:01:22.568Z,7.30
2022-11-07T20:03:51.943Z,7.40
2022-11-07T20:06:22.902Z,7.50
2022-11-07T20:08:50.705Z,7.50
2022-11-07T20:11:23.330Z,7.50
2022-11-07T20:13:51.057Z,7.50
2022-11-07T20:16:18.254Z,7.50
2022-11-07T20:18:45.962Z,7.40
2022-11-07T20:21:16.988Z,7.30
2022-11-07T20:23:45.636Z,7.30
2022-11-07T20:26:15.676Z,7.30
2022-11-07T20:28:43.200Z,7.40
2022-11-07T20:31:19.547Z,7.20
2022-11-07T20:33:47.137Z,7.10
2022-11-07T20:36:15.735Z,7.00
2022-11-07T20:38:43.895Z,7.10
2022-11-07T20:41:12.504Z,7.10
2022-11-07T20:43:40.408Z,7.10
2022-11-07T20:46:10.977Z,7.10
2022-11-07T20:48:39.123Z,7.20
2022-11-07T20:51:14.248Z,7.10
2022-11-07T20:53:46.797Z,7.00
2022-11-07T20:56:17.789Z,6.70
2022-11-07T20:58:45.371Z,6.50
2022-11-07T21:01:19.221Z,6.30
2022-11-07T21:03:47.106Z,6.20
2022-11-07T21:06:14.389Z,6.20
2022-11-07T21:08:46.841Z,6.20
2022-11-07T21:11:15.158Z,6.20
2022-11-07T21:13:46.604Z,6.00
2022-11-07T21:16:19.480Z,6.00
2022-11-07T21:18:46.863Z,5.90
2022-11-07T21:21:20.309Z,5.90
2022-11-07T21:23:48.973Z,6.00
2022-11-07T21:26:27.803Z,6.10
2022-11-07T21:28:55.951Z,6.20
2022-11-07T21:31:27.130Z,6.20
2022-11-07T21:33:55.793Z,6.10
2022-11-07T21:36:28.637Z,5.90
2022-11-07T21:38:57.602Z,5.90
2022-11-07T21:41:24.775Z,5.90
2022-11-07T21:43:52.053Z,6.00
2022-11-07T21:46:25.507Z,6.00
2022-11-07T21:48:53.097Z,6.10
2022-11-07T21:51:31.946Z,6.00
2022-11-07T21:54:00.239Z,6.00
2022-11-07T21:56:32.875Z,6.00
2022-11-07T21:59:02.276Z,6.10
